Time;durP1;ratioP1;P1;durP2;ratioP2;P2;SDS_P1;SDS_P2;PMS_P1;PMS_P2;Temp;Humidity;BMP_temperature;BMP_pressure;BME280_temperature;BME280_humidity;BME280_pressure;Samples;Min_cycle;Max_cycle;Signal;HPM_P1;HPM_P2
2023/08/01 00:01:55;;;;;;;4.97;2.28;;;;;;;29.63;41.34;96010.56;5023628;28;20378;-28
2023/08/01 00:04:20;;;;;;;3.65;2.22;;;;;;;29.52;41.50;96010.97;5016351;28;20022;-29
2023/08/01 00:06:46;;;;;;;4.15;2.30;;;;;;;29.59;41.54;96008.13;5024016;28;20377;-28
2023/08/01 00:09:11;;;;;;;3.38;2.08;;;;;;;29.58;41.43;96008.69;5026370;28;20476;-28
2023/08/01 00:11:37;;;;;;;3.53;2.05;;;;;;;29.48;41.59;96005.75;5024426;28;20194;-28
2023/08/01 00:14:02;;;;;;;5.28;3.05;;;;;;;29.61;41.06;95997.16;5023535;28;20457;-30
2023/08/01 00:16:28;;;;;;;4.70;2.50;;;;;;;29.56;41.46;96000.13;5023292;28;20022;-29
2023/08/01 00:18:53;;;;;;;2.80;2.40;;;;;;;29.51;41.29;96001.84;5023404;28;20036;-28
2023/08/01 00:21:18;;;;;;;3.35;2.22;;;;;;;29.58;41.39;95991.94;5016207;28;20022;-28
2023/08/01 00:23:44;;;;;;;4.28;2.33;;;;;;;29.40;41.79;95993.88;5023095;28;20033;-29
2023/08/01 00:26:09;;;;;;;4.30;2.17;;;;;;;29.52;41.50;95986.56;5022760;28;20053;-29
2023/08/01 00:28:35;;;;;;;3.85;2.58;;;;;;;29.50;41.56;95980.78;5019097;28;20076;-29
2023/08/01 00:31:05;;;;;;;5.10;2.17;;;;;;;29.58;41.16;95980.75;5018232;28;20493;-28
2023/08/01 00:33:30;;;;;;;3.72;2.30;;;;;;;29.39;42.23;95981.22;5023516;28;20025;-30
2023/08/01 00:35:56;;;;;;;5.55;2.47;;;;;;;29.50;41.67;95980.06;5022362;28;20433;-29
2023/08/01 00:38:21;;;;;;;3.92;1.95;;;;;;;29.58;41.40;95975.91;5023819;28;20100;-28
2023/08/01 00:40:47;;;;;;;5.93;2.38;;;;;;;29.46;41.62;95976.88;5021537;28;20466;-28
2023/08/01 00:43:12;;;;;;;2.88;2.08;;;;;;;29.28;42.12;95976.00;5022596;28;20083;-29
2023/08/01 00:45:38;;;;;;;4.45;2.05;;;;;;;29.43;42.08;95973.16;5021770;28;20062;-29
2023/08/01 00:48:04;;;;;;;5.43;2.10;;;;;;;29.46;42.37;95968.50;5021695;28;20052;-28
2023/08/01 00:50:29;;;;;;;3.72;2.40;;;;;;;29.29;42.48;95971.91;5017057;28;20378;-28
2023/08/01 00:52:55;;;;;;;5.18;1.98;;;;;;;29.26;42.37;95967.44;5028798;28;20037;-29
2023/08/01 00:55:22;;;;;;;5.03;2.20;;;;;;;29.31;42.30;95963.69;5015097;28;20025;-29
2023/08/01 00:57:48;;;;;;;3.15;1.90;;;;;;;29.34;42.32;95968.16;5022177;28;20021;-29
2023/08/01 01:00:14;;;;;;;3.72;2.20;;;;;;;29.19;42.80;95954.97;5022527;28;20032;-29
2023/08/01 01:02:40;;;;;;;3.22;2.13;;;;;;;29.26;42.58;95956.25;5029855;28;20342;-28
2023/08/01 01:05:06;;;;;;;4.32;2.10;;;;;;;29.40;42.36;95954.03;5024004;28;20385;-28
2023/08/01 01:07:32;;;;;;;5.50;2.30;;;;;;;29.25;42.69;95954.78;5025319;28;20052;-28
2023/08/01 01:09:58;;;;;;;5.60;2.40;;;;;;;29.42;42.79;95949.34;5021847;28;20053;-29
2023/08/01 01:12:24;;;;;;;4.03;2.15;;;;;;;29.28;42.83;95951.59;5021831;28;20066;-28
2023/08/01 01:14:49;;;;;;;3.90;2.20;;;;;;;29.23;43.22;95940.63;5022514;28;20029;-28
2023/08/01 01:17:15;;;;;;;4.78;2.03;;;;;;;29.30;42.91;95940.59;5022288;28;20026;-28
2023/08/01 01:19:40;;;;;;;7.78;2.90;;;;;;;29.18;43.65;95938.78;5021694;28;20021;-30
2023/08/01 01:22:08;;;;;;;6.93;2.55;;;;;;;29.27;43.36;95932.63;5023722;28;20109;-29
2023/08/01 01:24:35;;;;;;;3.58;2.30;;;;;;;29.31;43.42;95927.38;5024818;28;20096;-28
2023/08/01 01:27:03;;;;;;;4.88;2.45;;;;;;;29.14;43.74;95936.38;5017011;28;20117;-28
2023/08/01 01:29:29;;;;;;;2.85;1.92;;;;;;;29.25;43.23;95926.84;5021709;28;20026;-28
2023/08/01 01:31:57;;;;;;;4.13;2.33;;;;;;;29.33;43.51;95927.56;5013182;28;20496;-28
2023/08/01 01:34:23;;;;;;;3.03;2.00;;;;;;;29.37;43.36;95919.53;5023912;28;20030;-28
2023/08/01 01:36:48;;;;;;;3.25;2.40;;;;;;;29.22;43.85;95927.97;5019095;28;20022;-28
2023/08/01 01:39:14;;;;;;;3.22;2.15;;;;;;;29.09;44.46;95917.78;5020914;28;20021;-28
2023/08/01 01:41:39;;;;;;;3.45;2.40;;;;;;;29.22;44.02;95914.00;5020040;28;20067;-28
2023/08/01 01:44:05;;;;;;;5.20;2.40;;;;;;;29.15;44.46;95912.75;5021532;28;20104;-29
2023/08/01 01:46:30;;;;;;;4.10;2.30;;;;;;;29.12;44.22;95913.13;5023254;28;20466;-30
2023/08/01 01:48:57;;;;;;;4.45;2.33;;;;;;;29.15;44.51;95912.75;5024120;28;20147;-28
2023/08/01 01:51:24;;;;;;;6.35;2.67;;;;;;;29.22;44.21;95909.16;5023037;28;20026;-29
2023/08/01 01:53:50;;;;;;;8.30;2.42;;;;;;;29.10;44.16;95912.94;5024359;28;20025;-29
2023/08/01 01:56:15;;;;;;;4.38;2.35;;;;;;;29.21;44.09;95909.72;5018409;28;20014;-28
2023/08/01 01:58:40;;;;;;;4.82;2.42;;;;;;;29.24;44.09;95905.81;5014339;28;20075;-28
2023/08/01 02:01:06;;;;;;;6.65;2.38;;;;;;;29.05;44.58;95905.53;5018788;28;20135;-29
2023/08/01 02:03:31;;;;;;;6.45;2.63;;;;;;;29.10;44.55;95908.09;5016469;28;20032;-29
2023/08/01 02:05:57;;;;;;;4.85;2.70;;;;;;;28.98;45.00;95903.47;5028271;28;20484;-28
2023/08/01 02:08:22;;;;;;;7.07;2.60;;;;;;;29.07;44.99;95905.69;5012526;28;20017;-28
2023/08/01 02:10:48;;;;;;;4.82;2.72;;;;;;;29.06;44.96;95904.94;5021238;28;20025;-29
2023/08/01 02:13:14;;;;;;;5.60;2.42;;;;;;;29.18;44.64;95894.09;5018370;28;20116;-28
2023/08/01 02:15:40;;;;;;;4.68;2.17;;;;;;;28.89;45.58;95890.84;5024315;28;20100;-28
2023/08/01 02:18:05;;;;;;;6.00;2.35;;;;;;;28.98;45.43;95892.31;5020528;28;20073;-28
2023/08/01 02:20:31;;;;;;;5.80;2.30;;;;;;;28.87;46.01;95891.41;5019262;28;20075;-29
2023/08/01 02:22:56;;;;;;;4.00;2.78;;;;;;;28.91;45.98;95885.47;5016610;28;20026;-29
2023/08/01 02:25:22;;;;;;;7.03;2.40;;;;;;;29.09;45.52;95886.31;5020987;28;20018;-28
2023/08/01 02:27:47;;;;;;;6.28;2.20;;;;;;;28.78;45.95;95886.41;5020106;28;20032;-29
2023/08/01 02:30:13;;;;;;;6.72;2.67;;;;;;;28.88;45.84;95881.00;5020825;28;20068;-29
2023/08/01 02:32:38;;;;;;;5.60;2.70;;;;;;;28.97;45.95;95877.59;5020428;28;20033;-30
2023/08/01 02:35:04;;;;;;;3.92;2.20;;;;;;;29.10;45.48;95876.63;5020618;28;20026;-29
2023/08/01 02:37:30;;;;;;;4.90;2.40;;;;;;;28.96;45.50;95873.34;5020586;28;20363;-29
2023/08/01 02:39:55;;;;;;;5.63;2.47;;;;;;;28.82;46.10;95875.59;5012551;28;20497;-30
2023/08/01 02:42:20;;;;;;;8.93;2.83;;;;;;;29.06;45.94;95873.47;5021587;28;20075;-28
2023/08/01 02:44:46;;;;;;;6.85;2.63;;;;;;;29.07;45.92;95877.75;5019546;28;20030;-29
2023/08/01 02:47:11;;;;;;;8.05;2.70;;;;;;;29.00;45.81;95879.28;5020318;28;20025;-29
2023/08/01 02:49:37;;;;;;;6.97;2.70;;;;;;;28.91;45.99;95877.81;5015781;28;20022;-29
2023/08/01 02:52:02;;;;;;;4.18;2.65;;;;;;;29.05;45.97;95869.97;5018844;28;20108;-28
2023/08/01 02:54:28;;;;;;;7.15;2.40;;;;;;;28.90;46.54;95862.38;5020580;28;20025;-28
2023/08/01 02:56:53;;;;;;;4.80;2.88;;;;;;;28.89;46.28;95871.31;5020422;28;20033;-29
2023/08/01 02:59:19;;;;;;;6.35;2.65;;;;;;;28.80;47.00;95867.06;5014766;28;20021;-29
2023/08/01 03:01:44;;;;;;;7.35;3.15;;;;;;;29.01;46.21;95866.81;5024535;28;20024;-28
2023/08/01 03:04:11;;;;;;;6.20;2.83;;;;;;;29.09;45.88;95873.09;5021693;28;20029;-29
2023/08/01 03:06:37;;;;;;;5.63;2.40;;;;;;;29.08;45.86;95874.41;5026777;28;20021;-29
2023/08/01 03:09:07;;;;;;;7.75;2.65;;;;;;;28.91;46.43;95872.25;5020152;28;20428;-30
2023/08/01 03:11:36;;;;;;;4.85;2.65;;;;;;;28.99;46.09;95871.47;5027322;28;20060;-28
2023/08/01 03:14:04;;;;;;;6.72;2.50;;;;;;;28.82;46.59;95874.84;5019363;28;20018;-28
2023/08/01 03:16:30;;;;;;;10.20;3.20;;;;;;;28.86;46.80;95870.38;5028899;28;20022;-29
2023/08/01 03:18:55;;;;;;;5.95;2.80;;;;;;;28.79;46.82;95873.94;5025518;28;20025;-29
2023/08/01 03:21:21;;;;;;;8.93;2.85;;;;;;;28.90;46.52;95875.59;5031375;28;20033;-29
2023/08/01 03:23:46;;;;;;;5.43;3.05;;;;;;;28.99;46.26;95871.47;5031279;28;20116;-28
2023/08/01 03:26:12;;;;;;;6.47;3.10;;;;;;;28.77;46.49;95873.00;5016995;28;20017;-29
2023/08/01 03:28:38;;;;;;;7.68;3.20;;;;;;;28.78;47.41;95875.25;5024071;28;20449;-28
2023/08/01 03:31:03;;;;;;;6.35;2.80;;;;;;;28.75;47.31;95884.72;5022734;28;20421;-30
2023/08/01 03:33:29;;;;;;;7.47;2.55;;;;;;;28.84;46.67;95875.78;5023845;28;20022;-28
2023/08/01 03:35:54;;;;;;;5.35;2.70;;;;;;;28.94;46.78;95873.88;5022835;28;20026;-28
2023/08/01 03:38:20;;;;;;;6.68;2.63;;;;;;;29.00;46.92;95873.69;5024370;28;20099;-28
2023/08/01 03:40:45;;;;;;;6.22;2.60;;;;;;;28.81;47.10;95879.69;5020685;28;20124;-28
2023/08/01 03:43:12;;;;;;;4.63;2.70;;;;;;;28.94;46.42;95879.47;5026734;28;20474;-28
2023/08/01 03:45:37;;;;;;;4.82;2.50;;;;;;;28.86;46.90;95887.13;5019621;28;20113;-28
2023/08/01 03:48:15;;;;;;;6.85;2.80;;;;;;;28.90;46.61;95884.72;5026363;28;20489;-29
2023/08/01 03:50:40;;;;;;;6.10;2.90;;;;;;;28.74;46.83;95883.22;5019549;28;20025;-29
2023/08/01 03:53:07;;;;;;;4.70;2.53;;;;;;;28.99;46.35;95882.63;5026186;28;20029;-28
2023/08/01 03:55:33;;;;;;;4.32;2.92;;;;;;;29.01;46.71;95888.41;5018272;28;20029;-28
2023/08/01 03:57:58;;;;;;;6.32;3.47;;;;;;;28.93;46.52;95891.94;5027007;28;20571;-30
2023/08/01 04:00:24;;;;;;;5.72;3.00;;;;;;;28.83;47.17;95885.47;5026434;28;20074;-29
2023/08/01 04:02:49;;;;;;;4.57;2.70;;;;;;;28.95;46.72;95886.53;5025132;28;20149;-28
2023/08/01 04:05:15;;;;;;;3.97;2.58;;;;;;;28.88;46.98;95881.75;5021356;28;20018;-28
2023/08/01 04:07:41;;;;;;;7.25;3.28;;;;;;;28.77;47.16;95884.91;5023345;28;20041;-29
2023/08/01 04:10:07;;;;;;;7.60;2.90;;;;;;;28.81;46.92;95881.75;5026035;28;20022;-29
2023/08/01 04:12:34;;;;;;;8.65;3.10;;;;;;;28.89;46.91;95888.81;5026502;28;20045;-28
2023/08/01 04:14:59;;;;;;;6.35;2.90;;;;;;;28.89;46.87;95888.06;5018431;28;20033;-28
2023/08/01 04:17:25;;;;;;;5.93;2.65;;;;;;;28.87;46.83;95882.28;5025956;28;20354;-30
2023/08/01 04:19:50;;;;;;;7.82;2.85;;;;;;;28.74;47.47;95893.66;5025431;28;20026;-28
2023/08/01 04:22:16;;;;;;;5.22;3.00;;;;;;;28.62;48.25;95887.72;5026255;28;20017;-29
2023/08/01 04:24:41;;;;;;;5.88;2.65;;;;;;;28.87;47.51;95885.81;5020249;28;20025;-29
2023/08/01 04:27:07;;;;;;;5.70;3.20;;;;;;;28.95;47.45;95885.78;5030496;28;20108;-28
2023/08/01 04:29:32;;;;;;;11.75;3.55;;;;;;;28.77;47.83;95889.75;5019839;28;20390;-29
2023/08/01 04:31:58;;;;;;;8.77;3.13;;;;;;;28.78;47.50;95900.38;5025199;28;20029;-28
2023/08/01 04:34:24;;;;;;;7.68;2.90;;;;;;;28.83;47.71;95902.22;5022917;28;20036;-29
2023/08/01 04:36:49;;;;;;;8.00;3.40;;;;;;;28.65;47.80;95894.97;5021664;28;20363;-29
2023/08/01 04:39:15;;;;;;;7.15;3.08;;;;;;;28.52;48.43;95893.13;5021569;28;20107;-31
2023/08/01 04:41:40;;;;;;;6.47;3.35;;;;;;;28.48;48.61;95892.00;5019146;28;20052;-29
2023/08/01 04:44:06;;;;;;;7.00;2.97;;;;;;;28.59;48.60;95894.41;5025993;28;20021;-28
2023/08/01 04:46:32;;;;;;;5.93;3.22;;;;;;;28.68;48.31;95893.84;5024167;28;20489;-28
2023/08/01 04:48:57;;;;;;;5.75;2.92;;;;;;;28.60;48.50;95898.69;5025283;28;20050;-28
2023/08/01 04:51:23;;;;;;;7.00;3.30;;;;;;;28.64;48.59;95893.47;5024425;28;20033;-28
2023/08/01 04:53:48;;;;;;;7.47;3.28;;;;;;;28.58;48.53;95912.44;5026901;28;20091;-29
2023/08/01 04:56:14;;;;;;;6.85;3.28;;;;;;;28.70;47.93;95896.81;5026148;28;20024;-29
2023/08/01 04:58:39;;;;;;;8.05;3.20;;;;;;;28.69;48.02;95911.31;5023207;28;20033;-30
2023/08/01 05:01:04;;;;;;;6.20;3.60;;;;;;;28.73;47.99;95903.31;5028674;28;20401;-30
2023/08/01 05:03:30;;;;;;;7.82;2.97;;;;;;;28.51;48.57;95913.22;5022287;28;20416;-29
2023/08/01 05:05:55;;;;;;;8.23;3.38;;;;;;;28.52;48.71;95906.34;5017668;28;20433;-31
2023/08/01 05:08:21;;;;;;;10.48;3.08;;;;;;;28.41;48.82;95906.72;5020086;28;20033;-29
2023/08/01 05:10:46;;;;;;;7.82;3.53;;;;;;;28.74;48.34;95902.00;5027950;28;20075;-30
2023/08/01 05:13:12;;;;;;;6.80;4.10;;;;;;;28.71;48.49;95906.66;5025538;28;20026;-29
2023/08/01 05:15:37;;;;;;;9.10;3.65;;;;;;;28.72;48.39;95913.72;5025680;28;20104;-29
2023/08/01 05:18:03;;;;;;;7.63;3.65;;;;;;;28.57;49.02;95905.38;5015400;28;20029;-30
2023/08/01 05:20:30;;;;;;;8.18;3.05;;;;;;;28.52;49.28;95907.06;5022420;28;20028;-29
2023/08/01 05:22:59;;;;;;;7.35;3.17;;;;;;;28.72;48.98;95908.16;5020797;28;20025;-30
2023/08/01 05:25:24;;;;;;;10.40;4.05;;;;;;;28.68;48.99;95910.59;5021719;28;20025;-28
2023/08/01 05:27:50;;;;;;;9.52;3.75;;;;;;;28.83;48.85;95912.63;5014599;28;20045;-29
2023/08/01 05:30:15;;;;;;;9.50;3.50;;;;;;;28.67;49.38;95909.09;5022340;28;20037;-30
2023/08/01 05:32:43;;;;;;;6.95;3.70;;;;;;;28.83;48.73;95918.19;5021739;28;20072;-30
2023/08/01 05:35:09;;;;;;;5.95;3.70;;;;;;;28.72;49.40;95913.72;5022274;28;20021;-28
2023/08/01 05:37:34;;;;;;;8.75;3.88;;;;;;;28.89;48.85;95913.19;5021670;28;20057;-29
2023/08/01 05:39:59;;;;;;;7.65;3.90;;;;;;;28.81;49.27;95912.44;5021296;28;20018;-28
2023/08/01 05:42:25;;;;;;;10.63;4.05;;;;;;;28.98;48.79;95918.19;5021523;28;20025;-28
2023/08/01 05:44:50;;;;;;;11.38;4.30;;;;;;;28.93;49.10;95925.44;5014367;28;20022;-28
2023/08/01 05:47:16;;;;;;;8.63;4.18;;;;;;;28.74;49.73;95922.28;5021271;28;20022;-28
2023/08/01 05:49:41;;;;;;;10.48;4.15;;;;;;;28.71;49.82;95925.44;5021377;28;20028;-29
2023/08/01 05:52:07;;;;;;;13.20;4.47;;;;;;;28.79;49.78;95926.97;5020936;28;20029;-28
2023/08/01 05:54:33;;;;;;;7.43;4.95;;;;;;;28.68;50.10;95927.34;5021030;28;20025;-28
2023/08/01 05:56:58;;;;;;;11.23;3.92;;;;;;;28.86;49.58;95926.22;5021499;28;20022;-29
2023/08/01 05:59:24;;;;;;;10.93;3.90;;;;;;;28.91;49.28;95925.28;5021083;28;20441;-28
2023/08/01 06:01:49;;;;;;;9.70;4.78;;;;;;;28.92;49.16;95921.19;5021667;28;20018;-29
2023/08/01 06:04:15;;;;;;;11.10;4.25;;;;;;;28.72;49.37;95922.09;5019398;28;20021;-28
2023/08/01 06:06:40;;;;;;;10.18;3.40;;;;;;;28.72;48.89;95922.09;5022736;28;20395;-29
2023/08/01 06:09:06;;;;;;;9.27;3.70;;;;;;;28.90;48.17;95923.78;5017664;28;20023;-28
2023/08/01 06:11:33;;;;;;;9.50;3.90;;;;;;;28.66;49.46;95926.41;5024463;28;20022;-29
2023/08/01 06:13:59;;;;;;;7.32;3.75;;;;;;;28.55;50.18;95925.50;5016350;28;20056;-29
2023/08/01 06:16:24;;;;;;;7.57;4.05;;;;;;;28.52;50.32;95921.03;5024278;28;20057;-28
2023/08/01 06:18:49;;;;;;;12.25;4.03;;;;;;;28.72;49.66;95924.16;5015955;28;20385;-28
2023/08/01 06:21:15;;;;;;;9.77;4.00;;;;;;;28.89;48.97;95922.31;5013821;28;20516;-31
2023/08/01 06:23:40;;;;;;;6.65;3.58;;;;;;;28.78;49.46;95928.28;5021282;28;20014;-29
2023/08/01 06:26:06;;;;;;;10.00;3.88;;;;;;;28.77;49.23;95928.81;5028123;28;20432;-28
2023/08/01 06:28:31;;;;;;;7.43;3.50;;;;;;;28.76;48.69;95922.47;5020613;28;20075;-29
2023/08/01 06:30:57;;;;;;;6.57;3.45;;;;;;;28.66;48.98;95924.34;5020568;28;20079;-29
2023/08/01 06:33:22;;;;;;;9.10;3.35;;;;;;;28.72;48.67;95922.09;5023224;28;20096;-29
2023/08/01 06:35:49;;;;;;;8.82;3.47;;;;;;;28.89;48.51;95925.09;5023755;28;20112;-28
2023/08/01 06:38:14;;;;;;;6.75;3.70;;;;;;;28.81;48.73;95921.56;5021908;28;20104;-28
2023/08/01 06:40:40;;;;;;;9.57;3.42;;;;;;;28.85;48.71;95919.13;5019985;28;20191;-28
2023/08/01 06:43:05;;;;;;;7.43;3.83;;;;;;;28.90;48.61;95918.22;5019129;28;20604;-28
2023/08/01 06:45:31;;;;;;;6.82;3.20;;;;;;;28.73;49.26;95918.00;5027705;28;20047;-28
2023/08/01 06:47:57;;;;;;;8.77;3.60;;;;;;;28.89;49.15;95910.38;5020332;28;20057;-29
2023/08/01 06:50:23;;;;;;;7.38;3.60;;;;;;;28.82;49.46;95911.88;5026191;28;20379;-28
2023/08/01 06:52:48;;;;;;;5.90;3.33;;;;;;;28.81;49.60;95915.22;5020590;28;20108;-30
2023/08/01 06:55:14;;;;;;;8.68;3.42;;;;;;;28.86;49.78;95915.03;5026847;28;20433;-28
2023/08/01 06:57:39;;;;;;;7.07;3.40;;;;;;;28.88;49.94;95915.22;5020749;28;20040;-28
2023/08/01 07:00:06;;;;;;;9.68;4.20;;;;;;;28.74;50.24;95907.59;5020405;28;20061;-28
2023/08/01 07:02:31;;;;;;;10.85;3.83;;;;;;;28.77;50.53;95912.81;5020512;28;20014;-28
2023/08/01 07:04:56;;;;;;;6.38;3.13;;;;;;;28.79;50.35;95906.69;5023272;28;20122;-29
2023/08/01 07:07:22;;;;;;;9.48;3.63;;;;;;;28.84;50.48;95900.16;5023938;28;20029;-28
2023/08/01 07:09:48;;;;;;;7.38;3.50;;;;;;;28.87;49.26;95897.00;5022735;28;20600;-28
2023/08/01 07:12:14;;;;;;;8.73;3.13;;;;;;;28.78;49.56;95911.53;5023559;28;20053;-28
2023/08/01 07:14:39;;;;;;;4.78;3.20;;;;;;;28.79;48.78;95906.69;5023489;28;20104;-28
2023/08/01 07:17:05;;;;;;;9.50;3.08;;;;;;;28.79;48.56;95899.06;5028714;28;20105;-28
2023/08/01 07:19:30;;;;;;;7.38;3.05;;;;;;;28.83;48.61;95898.66;5025794;28;20030;-28
2023/08/01 07:21:56;;;;;;;8.80;3.30;;;;;;;28.93;47.90;95894.72;5020652;28;20018;-28
2023/08/01 07:24:21;;;;;;;11.70;3.45;;;;;;;28.87;47.92;95891.41;5020253;28;20045;-28
2023/08/01 07:26:47;;;;;;;9.00;3.00;;;;;;;28.94;47.94;95893.44;5012997;28;20018;-31
2023/08/01 07:29:15;;;;;;;4.55;2.60;;;;;;;29.01;47.79;95891.19;5020332;28;20112;-28
2023/08/01 07:31:41;;;;;;;5.80;2.70;;;;;;;28.97;48.00;95893.63;5020331;28;20030;-28
2023/08/01 07:34:07;;;;;;;6.10;2.85;;;;;;;28.94;47.93;95898.25;5020723;28;20021;-29
2023/08/01 07:36:33;;;;;;;4.93;2.78;;;;;;;29.10;47.24;95896.19;5016871;28;20021;-28
2023/08/01 07:38:58;;;;;;;5.30;2.83;;;;;;;29.06;47.65;95890.22;5023043;28;20025;-28
2023/08/01 07:41:24;;;;;;;6.20;3.03;;;;;;;29.02;47.69;95893.44;5020766;28;20037;-29
2023/08/01 07:43:49;;;;;;;3.80;2.65;;;;;;;29.15;47.03;95900.81;5020202;28;20030;-28
2023/08/01 07:46:14;;;;;;;7.07;2.80;;;;;;;29.28;46.39;95886.63;5015391;28;20062;-28
2023/08/01 07:48:40;;;;;;;7.00;2.58;;;;;;;29.24;47.22;95881.44;5024055;28;20061;-28
2023/08/01 07:51:07;;;;;;;9.82;3.20;;;;;;;29.26;47.19;95887.19;5023646;28;20361;-29
2023/08/01 07:53:34;;;;;;;8.32;3.08;;;;;;;29.25;46.97;95880.13;5024346;28;20026;-28
2023/08/01 07:56:01;;;;;;;6.57;2.80;;;;;;;29.49;46.11;95884.31;5029739;28;20022;-28
2023/08/01 07:58:27;;;;;;;6.72;2.92;;;;;;;29.38;46.33;95890.34;5023915;28;20105;-28
2023/08/01 08:00:52;;;;;;;5.65;2.90;;;;;;;29.58;45.68;95891.34;5018928;28;20105;-28
2023/08/01 08:03:18;;;;;;;5.22;2.78;;;;;;;29.40;46.47;95890.50;5020825;28;20026;-29
2023/08/01 08:05:44;;;;;;;6.93;2.95;;;;;;;29.47;46.29;95886.94;5024331;28;20100;-29
2023/08/01 08:08:10;;;;;;;7.32;3.00;;;;;;;29.71;45.46;95898.72;5022168;28;20851;-30
2023/08/01 08:10:35;;;;;;;6.65;3.35;;;;;;;29.46;46.10;95902.22;5023092;28;20029;-28
2023/08/01 08:13:01;;;;;;;8.10;2.92;;;;;;;29.61;45.62;95907.72;5023144;28;20025;-29
2023/08/01 08:15:27;;;;;;;8.60;2.72;;;;;;;29.57;45.69;95903.81;5023543;28;20021;-28
2023/08/01 08:17:52;;;;;;;5.15;2.47;;;;;;;29.80;45.15;95907.22;5023045;28;20033;-28
2023/08/01 08:20:18;;;;;;;6.22;2.30;;;;;;;29.82;44.97;95909.47;5023408;28;20029;-28
2023/08/01 08:22:43;;;;;;;4.93;2.58;;;;;;;29.65;45.21;95908.09;5022287;28;20029;-29
2023/08/01 08:25:09;;;;;;;5.95;2.95;;;;;;;29.73;44.82;95907.28;5023033;28;20033;-29
2023/08/01 08:27:34;;;;;;;7.65;2.60;;;;;;;29.59;44.89;95910.34;5020526;28;20029;-28
2023/08/01 08:30:00;;;;;;;4.07;2.53;;;;;;;29.78;44.43;95907.09;5025698;28;20420;-28
2023/08/01 08:32:25;;;;;;;6.50;2.67;;;;;;;29.72;44.08;95903.75;5026245;28;20056;-28
2023/08/01 08:34:53;;;;;;;5.20;2.92;;;;;;;29.75;44.03;95910.25;5025974;28;20461;-28
2023/08/01 08:37:19;;;;;;;8.02;2.70;;;;;;;29.83;43.68;95911.69;5022660;28;20385;-28
2023/08/01 08:39:44;;;;;;;7.00;2.42;;;;;;;29.78;43.72;95909.13;5015322;28;20025;-29
2023/08/01 08:42:10;;;;;;;5.63;3.10;;;;;;;29.84;43.78;95912.44;5022912;28;20397;-29
2023/08/01 08:44:43;;;;;;;4.28;2.22;;;;;;;29.91;43.66;95931.97;5025331;28;20112;-29
2023/08/01 08:47:11;;;;;;;3.83;2.75;;;;;;;29.84;44.03;95915.97;5025672;28;20017;-29
2023/08/01 08:49:37;;;;;;;7.15;2.63;;;;;;;29.99;43.52;95915.91;5024337;28;20029;-28
2023/08/01 08:52:03;;;;;;;6.70;3.08;;;;;;;29.87;43.24;95912.06;5020364;28;20486;-28
2023/08/01 08:54:31;;;;;;;5.80;2.97;;;;;;;30.05;43.52;95903.75;5022163;28;20030;-29
2023/08/01 08:56:57;;;;;;;6.82;2.92;;;;;;;29.93;43.69;95901.38;5022583;28;20033;-29
2023/08/01 08:59:26;;;;;;;5.00;2.75;;;;;;;30.05;44.00;95884.91;5022723;28;20025;-28
2023/08/01 09:01:52;;;;;;;7.10;3.35;;;;;;;30.00;44.19;95872.66;5025145;28;20014;-29
2023/08/01 09:04:17;;;;;;;6.30;3.30;;;;;;;30.06;43.98;95866.84;5025728;28;20492;-28
2023/08/01 09:06:49;;;;;;;6.90;3.22;;;;;;;29.92;44.40;95874.00;5023697;28;20028;-28
2023/08/01 09:09:15;;;;;;;4.32;2.80;;;;;;;29.94;44.12;95879.75;5027996;28;20513;-29
2023/08/01 09:11:47;;;;;;;4.25;2.25;;;;;;;29.97;43.67;95870.25;5014657;28;20084;-29
2023/08/01 09:14:13;;;;;;;5.65;3.03;;;;;;;30.03;43.24;95870.06;5022539;28;20025;-28
2023/08/01 09:16:40;;;;;;;6.22;2.88;;;;;;;29.95;43.36;95858.88;5020445;28;20036;-29
2023/08/01 09:19:07;;;;;;;5.50;2.67;;;;;;;30.07;43.16;95862.72;5016945;28;20021;-28
2023/08/01 09:21:37;;;;;;;3.50;2.40;;;;;;;30.25;43.04;95864.28;5019321;28;20018;-28
2023/08/01 09:24:10;;;;;;;8.50;3.95;;;;;;;30.15;43.46;95857.09;5013464;28;20026;-28
2023/08/01 09:26:35;;;;;;;6.82;2.60;;;;;;;30.11;43.35;95848.34;5027148;28;20028;-28
2023/08/01 09:29:01;;;;;;;4.55;2.67;;;;;;;30.06;43.66;95843.72;5023806;28;20432;-30
2023/08/01 09:31:31;;;;;;;8.13;2.60;;;;;;;30.00;43.52;95843.97;5014741;28;20017;-29
2023/08/01 09:33:56;;;;;;;5.15;2.40;;;;;;;30.10;42.89;95844.06;5022235;28;20123;-28
2023/08/01 09:36:24;;;;;;;6.68;2.50;;;;;;;30.05;42.80;95834.59;5022826;28;20021;-29
2023/08/01 09:38:50;;;;;;;7.40;2.85;;;;;;;30.01;42.92;95837.06;5024906;28;20071;-28
2023/08/01 09:41:19;;;;;;;3.70;2.45;;;;;;;30.14;43.01;95828.38;5016028;28;20034;-28
2023/08/01 09:43:46;;;;;;;5.63;3.03;;;;;;;30.15;43.21;95832.66;5020467;28;20033;-28
2023/08/01 09:46:12;;;;;;;5.10;2.70;;;;;;;30.00;42.98;95835.56;5021175;28;20017;-28
2023/08/01 09:48:37;;;;;;;3.58;2.47;;;;;;;30.15;43.24;95829.13;5039401;28;20042;-28
2023/08/01 09:51:11;;;;;;;6.70;2.78;;;;;;;30.14;42.97;95839.56;5024991;28;20100;-28
2023/08/01 09:53:54;;;;;;;4.35;2.72;;;;;;;30.16;42.26;95845.34;5021549;28;20071;-28
2023/08/01 09:56:25;;;;;;;7.65;3.03;;;;;;;30.13;42.71;95838.09;5020997;28;20535;-29
2023/08/01 09:58:53;;;;;;;10.30;2.65;;;;;;;30.10;42.68;95836.44;5024089;28;20116;-29
2023/08/01 10:01:20;;;;;;;6.22;2.70;;;;;;;30.28;42.39;95842.81;5025588;28;20022;-30
2023/08/01 10:03:48;;;;;;;7.82;2.85;;;;;;;30.19;41.94;95835.78;5022694;28;20026;-28
2023/08/01 10:06:19;;;;;;;8.32;2.80;;;;;;;30.23;42.17;95838.94;5025625;28;20014;-30
2023/08/01 10:08:47;;;;;;;3.20;2.47;;;;;;;30.36;42.12;95840.69;5027899;28;20017;-28
2023/08/01 10:11:15;;;;;;;4.38;2.80;;;;;;;30.25;41.96;95838.34;5017653;28;20025;-28
2023/08/01 10:13:43;;;;;;;7.50;2.50;;;;;;;30.29;42.20;95833.09;5016336;28;20014;-28
2023/08/01 10:16:08;;;;;;;5.80;2.72;;;;;;;30.21;42.36;95830.34;5021343;28;20373;-28
2023/08/01 10:18:37;;;;;;;5.68;2.47;;;;;;;30.27;42.53;95830.88;5025687;28;20033;-28
2023/08/01 10:21:04;;;;;;;7.03;2.80;;;;;;;30.18;42.20;95817.50;5014630;28;20057;-28
2023/08/01 10:23:32;;;;;;;4.38;2.30;;;;;;;30.34;42.30;95829.31;5018899;28;20361;-28
2023/08/01 10:26:00;;;;;;;5.28;3.13;;;;;;;30.34;42.10;95827.25;5022615;28;20096;-28
2023/08/01 10:28:36;;;;;;;4.72;2.67;;;;;;;30.33;42.15;95811.78;5023873;28;20075;-29
2023/08/01 10:31:16;;;;;;;5.43;2.72;;;;;;;30.28;42.03;95809.97;5022599;28;20025;-28
2023/08/01 10:33:47;;;;;;;4.53;2.45;;;;;;;30.28;41.84;95814.84;5018848;28;20095;-28
2023/08/01 10:36:17;;;;;;;8.27;2.95;;;;;;;30.35;41.71;95809.16;5015755;28;20025;-29
2023/08/01 10:38:52;;;;;;;5.88;2.58;;;;;;;30.38;41.90;95812.13;5019788;28;20026;-28
2023/08/01 10:41:36;;;;;;;4.75;2.42;;;;;;;30.33;41.68;95817.38;5018830;28;20075;-28
2023/08/01 10:44:09;;;;;;;5.72;3.30;;;;;;;30.33;41.41;95816.63;5020819;28;20026;-28
2023/08/01 10:46:51;;;;;;;7.05;2.80;;;;;;;30.42;41.79;95820.84;5015756;28;20101;-29
2023/08/01 10:49:18;;;;;;;4.65;2.67;;;;;;;30.37;41.93;95822.56;5016310;28;20140;-28
2023/08/01 10:51:44;;;;;;;5.38;2.58;;;;;;;30.40;42.03;95812.31;5020988;28;20060;-28
2023/08/01 10:54:21;;;;;;;4.07;2.50;;;;;;;30.41;41.09;95805.41;5020268;28;20382;-28
2023/08/01 10:56:47;;;;;;;4.10;2.35;;;;;;;30.35;41.50;95809.16;5020758;28;20018;-29
2023/08/01 10:59:14;;;;;;;5.78;2.78;;;;;;;30.42;41.28;95807.59;5020194;28;20026;-28
2023/08/01 11:01:53;;;;;;;5.00;2.50;;;;;;;30.36;41.32;95798.72;5020513;28;20105;-28
2023/08/01 11:04:21;;;;;;;6.05;3.08;;;;;;;30.51;40.84;95786.63;5018907;28;20080;-28
2023/08/01 11:06:48;;;;;;;6.22;2.90;;;;;;;30.54;41.13;95797.41;5021866;28;20524;-28
2023/08/01 11:09:18;;;;;;;5.65;2.65;;;;;;;30.49;40.99;95792.78;5017910;28;20193;-28
2023/08/01 11:11:44;;;;;;;6.68;2.80;;;;;;;30.53;41.46;95784.78;5022414;28;20658;-28
2023/08/01 11:14:12;;;;;;;5.93;2.75;;;;;;;30.43;41.38;95785.94;5020216;28;20105;-28
2023/08/01 11:16:38;;;;;;;6.95;2.50;;;;;;;30.36;41.60;95788.25;5020189;28;20018;-29
2023/08/01 11:19:03;;;;;;;5.30;2.83;;;;;;;30.40;41.14;95792.72;5015284;28;20036;-28
2023/08/01 11:21:29;;;;;;;7.00;2.95;;;;;;;30.55;41.06;95782.13;5027424;28;20036;-28
2023/08/01 11:23:56;;;;;;;7.50;2.85;;;;;;;30.41;41.20;95783.75;5019519;28;20026;-28
2023/08/01 11:26:21;;;;;;;6.57;2.75;;;;;;;30.44;41.27;95782.59;5017262;28;20374;-28
2023/08/01 11:28:47;;;;;;;5.88;2.60;;;;;;;30.53;40.86;95784.00;5023726;28;20022;-28
2023/08/01 11:31:13;;;;;;;6.78;2.60;;;;;;;30.47;40.71;95783.50;5023403;28;20029;-29